sensor_id;sensor_type;location;lat;lon;timestamp;temperature;humidity
9790;DHT22;4934;50.852;8.098;2023-03-23T00:00:53;10.40;99.90
9790;DHT22;4934;50.852;8.098;2023-03-23T00:03:20;10.40;99.90
9790;DHT22;4934;50.852;8.098;2023-03-23T00:05:47;10.30;99.90
9790;DHT22;4934;50.852;8.098;2023-03-23T00:08:20;10.30;99.90
9790;DHT22;4934;50.852;8.098;2023-03-23T00:10:50;10.30;99.90
9790;DHT22;4934;50.852;8.098;2023-03-23T00:13:24;10.30;99.90
9790;DHT22;4934;50.852;8.098;2023-03-23T00:15:49;10.30;99.90
9790;DHT22;4934;50.852;8.098;2023-03-23T00:18:17;10.30;99.90
9790;DHT22;4934;50.852;8.098;2023-03-23T00:20:48;10.20;99.90
9790;DHT22;4934;50.852;8.098;2023-03-23T00:23:15;10.10;99.90
9790;DHT22;4934;50.852;8.098;2023-03-23T00:25:45;10.10;99.90
9790;DHT22;4934;50.852;8.098;2023-03-23T00:28:11;10.10;99.90
9790;DHT22;4934;50.852;8.098;2023-03-23T00:30:38;10.10;99.90
9790;DHT22;4934;50.852;8.098;2023-03-23T00:33:04;10.10;99.90
9790;DHT22;4934;50.852;8.098;2023-03-23T00:35:30;10.10;99.90
9790;DHT22;4934;50.852;8.098;2023-03-23T00:37:56;10.00;99.90
9790;DHT22;4934;50.852;8.098;2023-03-23T00:40:24;10.00;99.90
9790;DHT22;4934;50.852;8.098;2023-03-23T00:42:50;10.00;99.90
9790;DHT22;4934;50.852;8.098;2023-03-23T00:45:15;9.90;99.90
9790;DHT22;4934;50.852;8.098;2023-03-23T00:47:42;9.90;99.90
9790;DHT22;4934;50.852;8.098;2023-03-23T00:50:12;9.90;99.90
9790;DHT22;4934;50.852;8.098;2023-03-23T00:52:39;9.90;99.90
9790;DHT22;4934;50.852;8.098;2023-03-23T00:55:06;9.90;99.90
9790;DHT22;4934;50.852;8.098;2023-03-23T00:57:32;10.00;99.90
9790;DHT22;4934;50.852;8.098;2023-03-23T00:59:58;10.00;99.90
9790;DHT22;4934;50.852;8.098;2023-03-23T01:02:23;10.10;99.90
9790;DHT22;4934;50.852;8.098;2023-03-23T01:04:52;10.10;99.90
9790;DHT22;4934;50.852;8.098;2023-03-23T01:07:21;10.10;99.90
9790;DHT22;4934;50.852;8.098;2023-03-23T01:09:48;10.10;99.90
9790;DHT22;4934;50.852;8.098;2023-03-23T01:12:14;10.00;99.90
9790;DHT22;4934;50.852;8.098;2023-03-23T01:14:41;10.10;99.90
9790;DHT22;4934;50.852;8.098;2023-03-23T01:17:07;10.10;99.90
9790;DHT22;4934;50.852;8.098;2023-03-23T01:19:32;10.10;99.90
9790;DHT22;4934;50.852;8.098;2023-03-23T01:21:58;10.10;99.90
9790;DHT22;4934;50.852;8.098;2023-03-23T01:24:23;10.10;99.90
9790;DHT22;4934;50.852;8.098;2023-03-23T01:26:49;10.00;99.90
9790;DHT22;4934;50.852;8.098;2023-03-23T01:29:15;10.00;99.90
9790;DHT22;4934;50.852;8.098;2023-03-23T01:31:40;10.10;99.90
9790;DHT22;4934;50.852;8.098;2023-03-23T01:34:08;10.10;99.90
9790;DHT22;4934;50.852;8.098;2023-03-23T01:36:35;10.10;99.90
9790;DHT22;4934;50.852;8.098;2023-03-23T01:39:03;10.00;99.90
9790;DHT22;4934;50.852;8.098;2023-03-23T01:41:30;10.00;99.90
9790;DHT22;4934;50.852;8.098;2023-03-23T01:44:07;10.10;99.90
9790;DHT22;4934;50.852;8.098;2023-03-23T01:46:35;10.10;99.90
9790;DHT22;4934;50.852;8.098;2023-03-23T01:49:07;10.20;99.90
9790;DHT22;4934;50.852;8.098;2023-03-23T01:51:42;10.20;99.90
9790;DHT22;4934;50.852;8.098;2023-03-23T01:54:11;10.20;99.90
9790;DHT22;4934;50.852;8.098;2023-03-23T01:56:52;10.20;99.90
9790;DHT22;4934;50.852;8.098;2023-03-23T01:59:19;10.20;99.90
9790;DHT22;4934;50.852;8.098;2023-03-23T02:01:46;10.10;99.90
9790;DHT22;4934;50.852;8.098;2023-03-23T02:04:15;10.10;99.90
9790;DHT22;4934;50.852;8.098;2023-03-23T02:06:42;10.00;99.90
9790;DHT22;4934;50.852;8.098;2023-03-23T02:09:08;10.00;99.90
9790;DHT22;4934;50.852;8.098;2023-03-23T02:11:34;10.00;99.90
9790;DHT22;4934;50.852;8.098;2023-03-23T02:14:00;9.90;99.90
9790;DHT22;4934;50.852;8.098;2023-03-23T02:19:39;10.00;99.90
9790;DHT22;4934;50.852;8.098;2023-03-23T02:28:03;9.80;99.90
9790;DHT22;4934;50.852;8.098;2023-03-23T02:33:27;9.80;99.90
9790;DHT22;4934;50.852;8.098;2023-03-23T02:38:37;9.80;99.90
9790;DHT22;4934;50.852;8.098;2023-03-23T02:41:04;9.70;99.90
9790;DHT22;4934;50.852;8.098;2023-03-23T02:43:50;9.60;99.90
9790;DHT22;4934;50.852;8.098;2023-03-23T02:46:17;9.70;99.90
9790;DHT22;4934;50.852;8.098;2023-03-23T02:48:44;9.60;99.90
9790;DHT22;4934;50.852;8.098;2023-03-23T02:51:11;9.70;99.90
9790;DHT22;4934;50.852;8.098;2023-03-23T02:53:40;9.70;99.90
9790;DHT22;4934;50.852;8.098;2023-03-23T02:56:08;9.60;99.90
9790;DHT22;4934;50.852;8.098;2023-03-23T02:58:35;9.60;99.90
9790;DHT22;4934;50.852;8.098;2023-03-23T03:01:16;9.60;99.90
9790;DHT22;4934;50.852;8.098;2023-03-23T03:04:14;9.50;99.90
9790;DHT22;4934;50.852;8.098;2023-03-23T03:07:15;9.40;99.90
9790;DHT22;4934;50.852;8.098;2023-03-23T03:12:58;9.60;99.90
9790;DHT22;4934;50.852;8.098;2023-03-23T03:15:38;9.50;99.90
9790;DHT22;4934;50.852;8.098;2023-03-23T03:20:32;9.50;99.90
9790;DHT22;4934;50.852;8.098;2023-03-23T03:22:58;9.60;99.90
9790;DHT22;4934;50.852;8.098;2023-03-23T03:25:25;9.50;99.90
9790;DHT22;4934;50.852;8.098;2023-03-23T03:27:53;9.60;99.90
9790;DHT22;4934;50.852;8.098;2023-03-23T03:30:22;9.60;99.90
9790;DHT22;4934;50.852;8.098;2023-03-23T03:32:51;9.60;99.90
9790;DHT22;4934;50.852;8.098;2023-03-23T03:35:20;9.60;99.90
9790;DHT22;4934;50.852;8.098;2023-03-23T03:37:46;9.50;99.90
9790;DHT22;4934;50.852;8.098;2023-03-23T03:40:15;9.50;99.90
9790;DHT22;4934;50.852;8.098;2023-03-23T03:42:43;9.50;99.90
9790;DHT22;4934;50.852;8.098;2023-03-23T03:45:12;9.50;99.90
9790;DHT22;4934;50.852;8.098;2023-03-23T03:47:38;9.40;99.90
9790;DHT22;4934;50.852;8.098;2023-03-23T03:50:04;9.40;99.90
9790;DHT22;4934;50.852;8.098;2023-03-23T03:52:31;9.40;99.90
9790;DHT22;4934;50.852;8.098;2023-03-23T03:54:57;9.40;99.90
9790;DHT22;4934;50.852;8.098;2023-03-23T03:57:22;9.40;99.90
9790;DHT22;4934;50.852;8.098;2023-03-23T03:59:48;9.40;99.90
9790;DHT22;4934;50.852;8.098;2023-03-23T04:02:14;9.40;99.90
9790;DHT22;4934;50.852;8.098;2023-03-23T04:04:46;9.30;99.90
9790;DHT22;4934;50.852;8.098;2023-03-23T04:07:11;9.40;99.90
9790;DHT22;4934;50.852;8.098;2023-03-23T04:09:45;9.40;99.90
9790;DHT22;4934;50.852;8.098;2023-03-23T04:12:15;9.40;99.90
9790;DHT22;4934;50.852;8.098;2023-03-23T04:14:41;9.40;99.90
9790;DHT22;4934;50.852;8.098;2023-03-23T04:17:07;9.40;99.90
9790;DHT22;4934;50.852;8.098;2023-03-23T04:19:35;9.40;99.90
9790;DHT22;4934;50.852;8.098;2023-03-23T04:22:03;9.40;99.90
9790;DHT22;4934;50.852;8.098;2023-03-23T04:24:29;9.40;99.90
9790;DHT22;4934;50.852;8.098;2023-03-23T04:26:56;9.40;99.90
9790;DHT22;4934;50.852;8.098;2023-03-23T04:29:22;9.40;99.90
9790;DHT22;4934;50.852;8.098;2023-03-23T04:31:47;9.40;99.90
9790;DHT22;4934;50.852;8.098;2023-03-23T04:34:16;9.40;99.90
9790;DHT22;4934;50.852;8.098;2023-03-23T04:36:41;9.40;99.90
9790;DHT22;4934;50.852;8.098;2023-03-23T04:39:08;9.40;99.90
9790;DHT22;4934;50.852;8.098;2023-03-23T04:41:39;9.30;99.90
9790;DHT22;4934;50.852;8.098;2023-03-23T04:44:06;9.30;99.90
9790;DHT22;4934;50.852;8.098;2023-03-23T04:46:32;9.40;99.90
9790;DHT22;4934;50.852;8.098;2023-03-23T04:48:58;9.40;99.90
9790;DHT22;4934;50.852;8.098;2023-03-23T04:51:25;9.40;99.90
9790;DHT22;4934;50.852;8.098;2023-03-23T04:53:52;9.30;99.90
9790;DHT22;4934;50.852;8.098;2023-03-23T04:56:18;9.30;99.90
9790;DHT22;4934;50.852;8.098;2023-03-23T04:58:44;9.40;99.90
9790;DHT22;4934;50.852;8.098;2023-03-23T05:01:10;9.40;99.90
9790;DHT22;4934;50.852;8.098;2023-03-23T05:03:39;9.40;99.90
9790;DHT22;4934;50.852;8.098;2023-03-23T05:06:05;9.40;99.90
9790;DHT22;4934;50.852;8.098;2023-03-23T05:08:31;9.40;99.90
9790;DHT22;4934;50.852;8.098;2023-03-23T05:10:59;9.50;99.90
9790;DHT22;4934;50.852;8.098;2023-03-23T05:13:25;9.40;99.90
9790;DHT22;4934;50.852;8.098;2023-03-23T05:15:50;9.50;99.90
9790;DHT22;4934;50.852;8.098;2023-03-23T05:18:16;9.50;99.90
9790;DHT22;4934;50.852;8.098;2023-03-23T05:20:42;9.50;99.90
9790;DHT22;4934;50.852;8.098;2023-03-23T05:23:09;9.50;99.90
9790;DHT22;4934;50.852;8.098;2023-03-23T05:25:36;9.50;99.90
9790;DHT22;4934;50.852;8.098;2023-03-23T05:28:14;9.40;99.90
9790;DHT22;4934;50.852;8.098;2023-03-23T05:30:40;9.50;99.90
9790;DHT22;4934;50.852;8.098;2023-03-23T05:33:05;9.50;99.90
9790;DHT22;4934;50.852;8.098;2023-03-23T05:35:31;9.50;99.90
9790;DHT22;4934;50.852;8.098;2023-03-23T05:37:57;9.50;99.90
9790;DHT22;4934;50.852;8.098;2023-03-23T05:40:23;9.50;99.90
9790;DHT22;4934;50.852;8.098;2023-03-23T05:42:51;9.50;99.90
9790;DHT22;4934;50.852;8.098;2023-03-23T05:45:17;9.50;99.90
9790;DHT22;4934;50.852;8.098;2023-03-23T05:47:43;9.50;99.90
9790;DHT22;4934;50.852;8.098;2023-03-23T05:50:10;9.50;99.90
9790;DHT22;4934;50.852;8.098;2023-03-23T05:52:39;9.50;99.90
9790;DHT22;4934;50.852;8.098;2023-03-23T05:55:05;9.50;99.90
9790;DHT22;4934;50.852;8.098;2023-03-23T05:57:31;9.60;99.90
9790;DHT22;4934;50.852;8.098;2023-03-23T05:59:57;9.60;99.90
9790;DHT22;4934;50.852;8.098;2023-03-23T06:02:24;9.60;99.90
9790;DHT22;4934;50.852;8.098;2023-03-23T06:04:50;9.60;99.90
9790;DHT22;4934;50.852;8.098;2023-03-23T06:07:24;9.60;99.90
9790;DHT22;4934;50.852;8.098;2023-03-23T06:09:51;9.60;99.90
9790;DHT22;4934;50.852;8.098;2023-03-23T06:12:16;9.70;99.90
9790;DHT22;4934;50.852;8.098;2023-03-23T06:14:46;9.80;99.90
9790;DHT22;4934;50.852;8.098;2023-03-23T06:17:12;9.80;99.90
9790;DHT22;4934;50.852;8.098;2023-03-23T06:19:38;9.80;99.90
9790;DHT22;4934;50.852;8.098;2023-03-23T06:22:04;9.90;99.90
9790;DHT22;4934;50.852;8.098;2023-03-23T06:24:30;9.90;99.90
9790;DHT22;4934;50.852;8.098;2023-03-23T06:26:57;10.00;99.90
9790;DHT22;4934;50.852;8.098;2023-03-23T06:29:24;10.10;99.90
9790;DHT22;4934;50.852;8.098;2023-03-23T06:31:54;10.10;99.90
9790;DHT22;4934;50.852;8.098;2023-03-23T06:34:21;10.10;99.90
9790;DHT22;4934;50.852;8.098;2023-03-23T06:36:47;10.00;99.90
9790;DHT22;4934;50.852;8.098;2023-03-23T06:39:13;10.10;99.90
9790;DHT22;4934;50.852;8.098;2023-03-23T06:41:39;10.10;99.90
9790;DHT22;4934;50.852;8.098;2023-03-23T06:44:05;10.20;99.90
9790;DHT22;4934;50.852;8.098;2023-03-23T06:46:31;10.10;99.90
9790;DHT22;4934;50.852;8.098;2023-03-23T06:48:57;10.20;99.90
9790;DHT22;4934;50.852;8.098;2023-03-23T06:51:23;10.20;99.90
9790;DHT22;4934;50.852;8.098;2023-03-23T06:53:48;10.30;99.90
9790;DHT22;4934;50.852;8.098;2023-03-23T06:56:14;10.30;99.90
9790;DHT22;4934;50.852;8.098;2023-03-23T06:58:40;10.30;99.90
9790;DHT22;4934;50.852;8.098;2023-03-23T07:01:07;10.40;99.90
9790;DHT22;4934;50.852;8.098;2023-03-23T07:03:34;10.40;99.90
9790;DHT22;4934;50.852;8.098;2023-03-23T07:05:59;10.40;99.90
9790;DHT22;4934;50.852;8.098;2023-03-23T07:08:25;10.50;99.90
9790;DHT22;4934;50.852;8.098;2023-03-23T07:10:53;10.50;99.90
9790;DHT22;4934;50.852;8.098;2023-03-23T07:13:20;10.50;99.90
9790;DHT22;4934;50.852;8.098;2023-03-23T07:15:46;10.70;99.90
9790;DHT22;4934;50.852;8.098;2023-03-23T07:18:14;10.80;99.90
9790;DHT22;4934;50.852;8.098;2023-03-23T07:20:40;10.90;99.90
9790;DHT22;4934;50.852;8.098;2023-03-23T07:23:06;10.90;99.90
9790;DHT22;4934;50.852;8.098;2023-03-23T07:25:32;11.00;99.90
9790;DHT22;4934;50.852;8.098;2023-03-23T07:27:59;11.00;99.90
9790;DHT22;4934;50.852;8.098;2023-03-23T07:30:26;11.00;99.90
9790;DHT22;4934;50.852;8.098;2023-03-23T07:32:52;11.10;99.90
9790;DHT22;4934;50.852;8.098;2023-03-23T07:35:18;11.10;99.90
9790;DHT22;4934;50.852;8.098;2023-03-23T07:37:44;11.20;99.90
9790;DHT22;4934;50.852;8.098;2023-03-23T07:40:11;11.10;99.90
9790;DHT22;4934;50.852;8.098;2023-03-23T07:42:44;11.10;99.90
9790;DHT22;4934;50.852;8.098;2023-03-23T07:45:11;11.20;99.90
9790;DHT22;4934;50.852;8.098;2023-03-23T07:47:38;11.20;99.90
9790;DHT22;4934;50.852;8.098;2023-03-23T07:50:04;11.30;99.90
9790;DHT22;4934;50.852;8.098;2023-03-23T07:52:30;11.40;99.90
9790;DHT22;4934;50.852;8.098;2023-03-23T07:54:56;11.40;99.90
9790;DHT22;4934;50.852;8.098;2023-03-23T07:57:22;11.40;99.90
9790;DHT22;4934;50.852;8.098;2023-03-23T07:59:48;11.50;99.90
9790;DHT22;4934;50.852;8.098;2023-03-23T08:02:13;11.50;99.90
9790;DHT22;4934;50.852;8.098;2023-03-23T08:04:40;11.70;99.90
9790;DHT22;4934;50.852;8.098;2023-03-23T08:07:06;11.70;99.90
9790;DHT22;4934;50.852;8.098;2023-03-23T08:09:31;11.80;99.90
9790;DHT22;4934;50.852;8.098;2023-03-23T08:11:57;11.90;99.90
9790;DHT22;4934;50.852;8.098;2023-03-23T08:14:23;11.90;99.90
9790;DHT22;4934;50.852;8.098;2023-03-23T08:16:52;12.00;99.90
9790;DHT22;4934;50.852;8.098;2023-03-23T08:19:20;11.90;99.90
9790;DHT22;4934;50.852;8.098;2023-03-23T08:21:46;11.90;99.90
9790;DHT22;4934;50.852;8.098;2023-03-23T08:24:12;12.00;99.90
9790;DHT22;4934;50.852;8.098;2023-03-23T08:26:38;12.00;99.90
9790;DHT22;4934;50.852;8.098;2023-03-23T08:29:04;12.00;99.90
9790;DHT22;4934;50.852;8.098;2023-03-23T08:31:29;12.00;99.90
9790;DHT22;4934;50.852;8.098;2023-03-23T08:33:55;12.00;99.90
9790;DHT22;4934;50.852;8.098;2023-03-23T08:36:22;12.10;99.90
9790;DHT22;4934;50.852;8.098;2023-03-23T08:38:49;12.10;99.90
9790;DHT22;4934;50.852;8.098;2023-03-23T08:41:17;12.20;99.90
9790;DHT22;4934;50.852;8.098;2023-03-23T08:43:42;12.20;99.90
9790;DHT22;4934;50.852;8.098;2023-03-23T08:46:09;12.30;99.90
9790;DHT22;4934;50.852;8.098;2023-03-23T08:48:36;12.30;99.90
9790;DHT22;4934;50.852;8.098;2023-03-23T08:51:05;12.40;99.90
9790;DHT22;4934;50.852;8.098;2023-03-23T08:53:31;12.40;99.90
9790;DHT22;4934;50.852;8.098;2023-03-23T08:56:03;12.50;99.90
9790;DHT22;4934;50.852;8.098;2023-03-23T08:58:29;12.50;99.90
9790;DHT22;4934;50.852;8.098;2023-03-23T09:00:54;12.60;99.90
9790;DHT22;4934;50.852;8.098;2023-03-23T09:03:20;12.60;99.90
9790;DHT22;4934;50.852;8.098;2023-03-23T09:05:46;12.50;99.90
9790;DHT22;4934;50.852;8.098;2023-03-23T09:08:12;12.50;99.90
9790;DHT22;4934;50.852;8.098;2023-03-23T09:10:38;12.60;99.90
9790;DHT22;4934;50.852;8.098;2023-03-23T09:13:04;12.60;99.90
9790;DHT22;4934;50.852;8.098;2023-03-23T09:15:30;12.60;99.90
9790;DHT22;4934;50.852;8.098;2023-03-23T09:17:56;12.60;99.90
9790;DHT22;4934;50.852;8.098;2023-03-23T09:20:25;12.50;99.90
9790;DHT22;4934;50.852;8.098;2023-03-23T09:22:54;12.50;99.90
9790;DHT22;4934;50.852;8.098;2023-03-23T09:25:22;12.60;99.90
9790;DHT22;4934;50.852;8.098;2023-03-23T09:27:50;12.60;99.90
9790;DHT22;4934;50.852;8.098;2023-03-23T09:30:19;12.70;99.90
9790;DHT22;4934;50.852;8.098;2023-03-23T09:32:46;12.70;99.90
9790;DHT22;4934;50.852;8.098;2023-03-23T09:35:14;12.70;99.90
9790;DHT22;4934;50.852;8.098;2023-03-23T09:37:42;12.70;99.90
9790;DHT22;4934;50.852;8.098;2023-03-23T09:40:15;12.60;99.90
9790;DHT22;4934;50.852;8.098;2023-03-23T09:43:09;12.50;99.90
9790;DHT22;4934;50.852;8.098;2023-03-23T09:48:46;12.50;99.90
9790;DHT22;4934;50.852;8.098;2023-03-23T09:54:13;12.60;99.90
9790;DHT22;4934;50.852;8.098;2023-03-23T09:56:40;12.60;99.90
9790;DHT22;4934;50.852;8.098;2023-03-23T09:59:24;12.70;99.90
9790;DHT22;4934;50.852;8.098;2023-03-23T10:01:55;12.60;99.90
9790;DHT22;4934;50.852;8.098;2023-03-23T10:04:41;12.70;99.90
9790;DHT22;4934;50.852;8.098;2023-03-23T10:07:15;12.70;99.90
9790;DHT22;4934;50.852;8.098;2023-03-23T10:09:44;12.80;99.90
9790;DHT22;4934;50.852;8.098;2023-03-23T10:17:44;13.00;99.90
9790;DHT22;4934;50.852;8.098;2023-03-23T10:26:06;13.30;99.90
9790;DHT22;4934;50.852;8.098;2023-03-23T10:28:40;13.30;99.90
9790;DHT22;4934;50.852;8.098;2023-03-23T10:31:11;13.40;99.90
9790;DHT22;4934;50.852;8.098;2023-03-23T10:33:42;13.50;99.90
9790;DHT22;4934;50.852;8.098;2023-03-23T10:36:22;13.60;99.90
9790;DHT22;4934;50.852;8.098;2023-03-23T10:39:11;13.70;99.90
9790;DHT22;4934;50.852;8.098;2023-03-23T10:41:38;13.50;99.90
9790;DHT22;4934;50.852;8.098;2023-03-23T10:44:19;13.40;99.90
9790;DHT22;4934;50.852;8.098;2023-03-23T10:49:28;13.40;99.90
9790;DHT22;4934;50.852;8.098;2023-03-23T10:54:45;13.30;99.90
9790;DHT22;4934;50.852;8.098;2023-03-23T10:57:23;13.10;99.90
9790;DHT22;4934;50.852;8.098;2023-03-23T10:59:50;13.10;99.90
9790;DHT22;4934;50.852;8.098;2023-03-23T11:02:20;13.00;99.90
9790;DHT22;4934;50.852;8.098;2023-03-23T11:05:04;13.00;99.90
9790;DHT22;4934;50.852;8.098;2023-03-23T11:07:33;13.00;99.90
9790;DHT22;4934;50.852;8.098;2023-03-23T11:10:11;13.00;99.90
9790;DHT22;4934;50.852;8.098;2023-03-23T11:12:44;13.10;99.90
9790;DHT22;4934;50.852;8.098;2023-03-23T11:15:30;13.20;99.90
9790;DHT22;4934;50.852;8.098;2023-03-23T11:17:58;13.30;99.90
9790;DHT22;4934;50.852;8.098;2023-03-23T11:20:25;13.30;99.90
9790;DHT22;4934;50.852;8.098;2023-03-23T11:22:52;13.30;99.90
9790;DHT22;4934;50.852;8.098;2023-03-23T11:25:18;13.40;99.90
9790;DHT22;4934;50.852;8.098;2023-03-23T11:27:43;13.30;99.90
9790;DHT22;4934;50.852;8.098;2023-03-23T11:30:25;13.30;99.90
9790;DHT22;4934;50.852;8.098;2023-03-23T11:32:52;13.20;99.90
9790;DHT22;4934;50.852;8.098;2023-03-23T11:35:21;13.10;99.90
9790;DHT22;4934;50.852;8.098;2023-03-23T11:37:51;13.10;99.90
9790;DHT22;4934;50.852;8.098;2023-03-23T11:40:23;13.00;99.90
9790;DHT22;4934;50.852;8.098;2023-03-23T11:43:11;13.10;99.90
9790;DHT22;4934;50.852;8.098;2023-03-23T11:45:40;13.20;99.90
9790;DHT22;4934;50.852;8.098;2023-03-23T11:51:13;13.20;99.90
9790;DHT22;4934;50.852;8.098;2023-03-23T11:53:54;13.30;99.90
9790;DHT22;4934;50.852;8.098;2023-03-23T11:56:36;13.40;99.90
9790;DHT22;4934;50.852;8.098;2023-03-23T11:59:09;13.50;99.90
9790;DHT22;4934;50.852;8.098;2023-03-23T12:01:55;13.50;99.90
9790;DHT22;4934;50.852;8.098;2023-03-23T12:10:24;13.50;99.90
9790;DHT22;4934;50.852;8.098;2023-03-23T12:16:32;14.10;99.90
9790;DHT22;4934;50.852;8.098;2023-03-23T12:24:38;14.50;99.90
9790;DHT22;4934;50.852;8.098;2023-03-23T12:35:48;14.60;99.90
9790;DHT22;4934;50.852;8.098;2023-03-23T12:43:48;14.70;99.90
9790;DHT22;4934;50.852;8.098;2023-03-23T12:46:46;14.90;99.90
9790;DHT22;4934;50.852;8.098;2023-03-23T12:49:26;15.10;99.90
9790;DHT22;4934;50.852;8.098;2023-03-23T12:52:14;15.20;99.90
9790;DHT22;4934;50.852;8.098;2023-03-23T12:57:40;15.60;99.90
9790;DHT22;4934;50.852;8.098;2023-03-23T13:00:28;15.50;99.90
9790;DHT22;4934;50.852;8.098;2023-03-23T13:03:23;15.50;99.90
9790;DHT22;4934;50.852;8.098;2023-03-23T13:06:07;15.50;99.90
9790;DHT22;4934;50.852;8.098;2023-03-23T13:08:39;15.50;99.90
9790;DHT22;4934;50.852;8.098;2023-03-23T13:11:13;15.50;99.90
9790;DHT22;4934;50.852;8.098;2023-03-23T13:13:48;15.50;99.90
9790;DHT22;4934;50.852;8.098;2023-03-23T13:22:11;15.20;99.90
9790;DHT22;4934;50.852;8.098;2023-03-23T13:25:01;15.20;99.90
9790;DHT22;4934;50.852;8.098;2023-03-23T13:27:29;15.10;99.90
9790;DHT22;4934;50.852;8.098;2023-03-23T13:29:55;15.20;99.90
9790;DHT22;4934;50.852;8.098;2023-03-23T13:32:31;15.20;99.90
9790;DHT22;4934;50.852;8.098;2023-03-23T13:35:02;15.20;99.90
9790;DHT22;4934;50.852;8.098;2023-03-23T13:37:28;15.40;99.90
9790;DHT22;4934;50.852;8.098;2023-03-23T13:42:53;15.20;99.90
9790;DHT22;4934;50.852;8.098;2023-03-23T13:45:36;15.10;99.90
9790;DHT22;4934;50.852;8.098;2023-03-23T13:54:03;15.20;99.90
9790;DHT22;4934;50.852;8.098;2023-03-23T13:56:41;15.20;99.90
9790;DHT22;4934;50.852;8.098;2023-03-23T13:59:15;15.30;99.90
9790;DHT22;4934;50.852;8.098;2023-03-23T14:01:41;15.30;99.90
9790;DHT22;4934;50.852;8.098;2023-03-23T14:04:16;15.40;99.90
9790;DHT22;4934;50.852;8.098;2023-03-23T14:06:44;15.30;99.90
9790;DHT22;4934;50.852;8.098;2023-03-23T14:09:33;15.10;99.90
9790;DHT22;4934;50.852;8.098;2023-03-23T14:12:04;15.00;99.90
9790;DHT22;4934;50.852;8.098;2023-03-23T14:14:59;14.90;99.90
9790;DHT22;4934;50.852;8.098;2023-03-23T14:17:42;14.80;99.90
9790;DHT22;4934;50.852;8.098;2023-03-23T14:20:24;14.80;99.90
9790;DHT22;4934;50.852;8.098;2023-03-23T14:22:54;14.70;99.90
9790;DHT22;4934;50.852;8.098;2023-03-23T14:25:20;14.70;99.90
9790;DHT22;4934;50.852;8.098;2023-03-23T14:27:47;14.70;99.90
9790;DHT22;4934;50.852;8.098;2023-03-23T14:30:15;14.80;99.90
9790;DHT22;4934;50.852;8.098;2023-03-23T14:32:41;14.90;99.90
9790;DHT22;4934;50.852;8.098;2023-03-23T14:35:22;14.90;99.90
9790;DHT22;4934;50.852;8.098;2023-03-23T14:37:48;14.90;99.90
9790;DHT22;4934;50.852;8.098;2023-03-23T14:40:16;15.00;99.90
9790;DHT22;4934;50.852;8.098;2023-03-23T14:42:43;15.00;99.90
9790;DHT22;4934;50.852;8.098;2023-03-23T14:45:17;14.90;99.90
9790;DHT22;4934;50.852;8.098;2023-03-23T14:47:48;14.90;99.90
9790;DHT22;4934;50.852;8.098;2023-03-23T14:50:37;14.90;99.90
9790;DHT22;4934;50.852;8.098;2023-03-23T14:55:49;14.90;99.90
9790;DHT22;4934;50.852;8.098;2023-03-23T14:58:19;14.80;99.90
9790;DHT22;4934;50.852;8.098;2023-03-23T15:01:06;14.70;99.90
9790;DHT22;4934;50.852;8.098;2023-03-23T15:03:36;14.80;99.90
9790;DHT22;4934;50.852;8.098;2023-03-23T15:06:12;14.80;99.90
9790;DHT22;4934;50.852;8.098;2023-03-23T15:08:39;14.80;99.90
9790;DHT22;4934;50.852;8.098;2023-03-23T15:13:45;14.80;99.90
9790;DHT22;4934;50.852;8.098;2023-03-23T15:16:32;14.90;99.90
9790;DHT22;4934;50.852;8.098;2023-03-23T15:19:01;14.80;99.90
9790;DHT22;4934;50.852;8.098;2023-03-23T15:21:31;14.80;99.90
9790;DHT22;4934;50.852;8.098;2023-03-23T15:23:58;14.90;99.90
9790;DHT22;4934;50.852;8.098;2023-03-23T15:29:21;14.80;99.90
9790;DHT22;4934;50.852;8.098;2023-03-23T15:31:52;14.70;99.90
9790;DHT22;4934;50.852;8.098;2023-03-23T15:34:44;14.70;99.90
9790;DHT22;4934;50.852;8.098;2023-03-23T15:39:46;14.50;99.90
9790;DHT22;4934;50.852;8.098;2023-03-23T15:42:30;14.40;99.90
9790;DHT22;4934;50.852;8.098;2023-03-23T15:45:27;14.50;99.90
9790;DHT22;4934;50.852;8.098;2023-03-23T15:47:54;14.60;99.90
9790;DHT22;4934;50.852;8.098;2023-03-23T15:52:51;14.40;99.90
9790;DHT22;4934;50.852;8.098;2023-03-23T15:55:38;14.40;99.90
9790;DHT22;4934;50.852;8.098;2023-03-23T15:58:12;14.30;99.90
9790;DHT22;4934;50.852;8.098;2023-03-23T16:00:39;14.30;99.90
9790;DHT22;4934;50.852;8.098;2023-03-23T16:03:10;14.30;99.90
9790;DHT22;4934;50.852;8.098;2023-03-23T16:05:36;14.30;99.90
9790;DHT22;4934;50.852;8.098;2023-03-23T16:08:02;14.30;99.90
9790;DHT22;4934;50.852;8.098;2023-03-23T16:10:28;14.20;99.90
9790;DHT22;4934;50.852;8.098;2023-03-23T16:12:54;14.20;99.90
9790;DHT22;4934;50.852;8.098;2023-03-23T16:15:20;14.10;99.90
9790;DHT22;4934;50.852;8.098;2023-03-23T16:17:46;14.10;99.90
9790;DHT22;4934;50.852;8.098;2023-03-23T16:20:15;14.10;99.90
9790;DHT22;4934;50.852;8.098;2023-03-23T16:22:41;14.00;99.90
9790;DHT22;4934;50.852;8.098;2023-03-23T16:25:07;13.90;99.90
9790;DHT22;4934;50.852;8.098;2023-03-23T16:27:34;13.90;99.90
9790;DHT22;4934;50.852;8.098;2023-03-23T16:29:59;13.90;99.90
9790;DHT22;4934;50.852;8.098;2023-03-23T16:32:27;13.90;99.90
9790;DHT22;4934;50.852;8.098;2023-03-23T16:34:53;13.90;99.90
9790;DHT22;4934;50.852;8.098;2023-03-23T16:37:19;14.00;99.90
9790;DHT22;4934;50.852;8.098;2023-03-23T16:39:46;14.00;99.90
9790;DHT22;4934;50.852;8.098;2023-03-23T16:42:11;14.00;99.90
9790;DHT22;4934;50.852;8.098;2023-03-23T16:44:37;14.00;99.90
9790;DHT22;4934;50.852;8.098;2023-03-23T16:47:02;13.90;99.90
9790;DHT22;4934;50.852;8.098;2023-03-23T16:49:28;13.90;99.90
9790;DHT22;4934;50.852;8.098;2023-03-23T16:51:53;13.90;99.90
9790;DHT22;4934;50.852;8.098;2023-03-23T16:54:19;13.80;99.90
9790;DHT22;4934;50.852;8.098;2023-03-23T16:56:45;13.70;99.90
9790;DHT22;4934;50.852;8.098;2023-03-23T16:59:13;13.70;99.90
9790;DHT22;4934;50.852;8.098;2023-03-23T17:01:38;13.60;99.90
9790;DHT22;4934;50.852;8.098;2023-03-23T17:04:05;13.60;99.90
9790;DHT22;4934;50.852;8.098;2023-03-23T17:06:31;13.50;99.90
9790;DHT22;4934;50.852;8.098;2023-03-23T17:08:57;13.40;99.90
9790;DHT22;4934;50.852;8.098;2023-03-23T17:11:23;13.40;99.90
9790;DHT22;4934;50.852;8.098;2023-03-23T17:13:48;13.40;99.90
9790;DHT22;4934;50.852;8.098;2023-03-23T17:16:14;13.20;99.90
9790;DHT22;4934;50.852;8.098;2023-03-23T17:18:40;13.10;99.90
9790;DHT22;4934;50.852;8.098;2023-03-23T17:21:06;13.00;99.90
9790;DHT22;4934;50.852;8.098;2023-03-23T17:23:32;13.00;99.90
9790;DHT22;4934;50.852;8.098;2023-03-23T17:25:58;12.90;99.90
9790;DHT22;4934;50.852;8.098;2023-03-23T17:28:23;12.70;99.90
9790;DHT22;4934;50.852;8.098;2023-03-23T17:30:50;12.60;99.90
9790;DHT22;4934;50.852;8.098;2023-03-23T17:33:16;12.60;99.90
9790;DHT22;4934;50.852;8.098;2023-03-23T17:35:45;12.60;99.90
9790;DHT22;4934;50.852;8.098;2023-03-23T17:38:11;12.30;99.90
9790;DHT22;4934;50.852;8.098;2023-03-23T17:40:36;12.30;99.90
9790;DHT22;4934;50.852;8.098;2023-03-23T17:43:02;12.20;99.90
9790;DHT22;4934;50.852;8.098;2023-03-23T17:45:28;12.10;99.90
9790;DHT22;4934;50.852;8.098;2023-03-23T17:47:54;12.10;99.90
9790;DHT22;4934;50.852;8.098;2023-03-23T17:50:20;12.10;99.90
9790;DHT22;4934;50.852;8.098;2023-03-23T17:52:46;12.00;99.90
9790;DHT22;4934;50.852;8.098;2023-03-23T17:55:11;11.80;99.90
9790;DHT22;4934;50.852;8.098;2023-03-23T17:57:37;11.70;99.90
9790;DHT22;4934;50.852;8.098;2023-03-23T18:00:04;11.70;99.90
9790;DHT22;4934;50.852;8.098;2023-03-23T18:02:33;11.70;99.90
9790;DHT22;4934;50.852;8.098;2023-03-23T18:04:58;11.60;99.90